Time;durP1;ratioP1;P1;durP2;ratioP2;P2;SDS_P1;SDS_P2;PMS_P1;PMS_P2;Temp;Humidity;BMP_temperature;BMP_pressure;BME280_temperature;BME280_humidity;BME280_pressure;Samples;Min_cycle;Max_cycle;Signal;HPM_P1;HPM_P2
2022/01/19 00:02:21;;;;;;;179.88;33.45;;;;;;;5.59;87.99;103437.91;5095857;28;20131;-68
2022/01/19 00:04:46;;;;;;;149.20;30.67;;;;;;;5.51;87.77;103432.38;5095236;28;20043;-68
2022/01/19 00:07:12;;;;;;;164.93;30.83;;;;;;;5.97;86.33;103424.88;5095129;28;20499;-68
2022/01/19 00:09:37;;;;;;;163.30;29.70;;;;;;;5.78;86.38;103431.88;5081003;28;20098;-69
2022/01/19 00:12:03;;;;;;;156.27;30.20;;;;;;;5.84;86.69;103420.69;5074738;28;20040;-68
2022/01/19 00:14:30;;;;;;;109.72;28.08;;;;;;;6.06;85.11;103429.41;5075275;28;20037;-68
2022/01/19 00:16:56;;;;;;;130.35;28.88;;;;;;;5.92;85.74;103420.88;5056449;28;20032;-69
2022/01/19 00:19:21;;;;;;;115.60;27.52;;;;;;;6.03;85.56;103423.47;5074437;28;20028;-69
2022/01/19 00:21:46;;;;;;;112.13;24.33;;;;;;;5.90;85.79;103426.34;5074440;28;20039;-69
2022/01/19 00:24:12;;;;;;;106.18;28.33;;;;;;;6.01;85.27;103428.94;5074330;28;20388;-69
2022/01/19 00:26:37;;;;;;;184.43;27.42;;;;;;;6.10;84.56;103416.63;5074755;28;20033;-70
2022/01/19 00:29:03;;;;;;;149.55;27.75;;;;;;;6.22;84.40;103412.91;5074485;28;20063;-69
2022/01/19 00:31:28;;;;;;;173.30;28.20;;;;;;;6.17;84.39;103388.44;5073960;28;20419;-68
2022/01/19 00:33:53;;;;;;;130.35;26.80;;;;;;;6.09;84.54;103362.38;5074179;28;20037;-69
2022/01/19 00:36:19;;;;;;;144.07;26.95;;;;;;;6.07;84.06;103334.16;5074058;28;20064;-69
2022/01/19 00:38:44;;;;;;;103.38;24.83;;;;;;;6.17;83.50;103313.69;5082195;28;20055;-69
2022/01/19 00:41:10;;;;;;;142.35;26.48;;;;;;;6.12;83.65;103300.75;5094094;28;20123;-68
2022/01/19 00:43:37;;;;;;;123.93;23.83;;;;;;;6.08;84.40;103293.97;5093970;28;20115;-70
2022/01/19 00:46:03;;;;;;;189.88;27.17;;;;;;;6.08;84.15;103282.47;5094171;28;20044;-69
2022/01/19 00:48:29;;;;;;;157.73;27.63;;;;;;;6.13;84.06;103281.06;5094213;28;20052;-69
2022/01/19 00:50:56;;;;;;;159.07;25.33;;;;;;;6.10;84.43;103286.69;5094151;28;20023;-68
2022/01/19 00:53:21;;;;;;;155.50;27.02;;;;;;;6.06;84.17;103282.59;5094983;28;20016;-70
2022/01/19 00:55:47;;;;;;;113.35;26.73;;;;;;;6.17;83.96;103277.13;5093952;28;20043;-68
2022/01/19 00:58:12;;;;;;;102.75;25.45;;;;;;;6.01;84.54;103287.47;5094107;28;20093;-68
2022/01/19 01:00:38;;;;;;;159.65;28.02;;;;;;;5.94;84.47;103285.50;5094134;28;20036;-69
2022/01/19 01:03:04;;;;;;;146.32;27.92;;;;;;;6.14;84.11;103287.25;5093916;28;20444;-68
2022/01/19 01:05:30;;;;;;;208.23;31.45;;;;;;;6.19;83.59;103282.38;5094395;28;20165;-71
2022/01/19 01:07:56;;;;;;;98.78;29.35;;;;;;;6.21;84.22;103278.56;5093458;28;20036;-69
2022/01/19 01:10:22;;;;;;;124.00;27.58;;;;;;;6.11;84.72;103275.00;5073478;28;20385;-70
2022/01/19 01:18:35;;;;;;;136.18;26.77;;;;;;;6.19;83.42;103267.16;5030955;28;20029;-70
2022/01/19 01:21:02;;;;;;;143.70;26.70;;;;;;;6.11;83.43;103251.00;5030940;28;20066;-71
2022/01/19 01:23:31;;;;;;;99.20;24.27;;;;;;;5.95;84.37;103233.84;5015143;28;20041;-70
2022/01/19 01:25:57;;;;;;;65.35;23.40;;;;;;;5.99;83.92;103233.44;5030807;28;20052;-71
2022/01/19 01:28:22;;;;;;;93.00;23.83;;;;;;;5.78;84.43;103229.94;5030960;28;20045;-70
2022/01/19 01:30:48;;;;;;;76.90;23.23;;;;;;;5.90;83.77;103228.03;5030964;28;20115;-71
2022/01/19 01:33:13;;;;;;;61.33;25.05;;;;;;;5.88;83.82;103214.00;5030775;28;20160;-71
2022/01/19 01:35:39;;;;;;;88.93;26.13;;;;;;;5.79;83.57;103212.13;5040427;28;20116;-70
2022/01/19 01:38:05;;;;;;;77.60;25.40;;;;;;;5.77;84.18;103212.25;5050686;28;20404;-71
2022/01/19 01:40:33;;;;;;;74.18;25.33;;;;;;;5.69;84.06;103206.75;5049366;28;20049;-71
2022/01/19 01:43:02;;;;;;;129.25;27.83;;;;;;;5.72;84.04;103189.66;5050838;28;20083;-71
2022/01/19 01:45:31;;;;;;;103.97;25.80;;;;;;;5.75;84.26;103178.69;5050315;28;20493;-70
2022/01/19 01:48:07;;;;;;;127.63;27.23;;;;;;;5.85;83.72;103171.59;5050398;28;20488;-70
2022/01/19 01:53:26;;;;;;;100.70;26.20;;;;;;;5.81;84.10;103167.47;5085020;28;20051;-71
2022/01/19 01:55:54;;;;;;;94.25;26.60;;;;;;;6.00;83.25;103175.53;5074774;28;20507;-71
2022/01/19 01:58:20;;;;;;;153.00;26.98;;;;;;;6.11;82.83;103176.25;5092623;28;20040;-71
2022/01/19 02:00:45;;;;;;;113.70;26.33;;;;;;;6.09;82.51;103169.38;5092965;28;20043;-70
2022/01/19 02:03:12;;;;;;;100.03;25.83;;;;;;;6.10;82.81;103149.72;5091270;28;20097;-70
2022/01/19 02:05:50;;;;;;;83.00;25.15;;;;;;;5.94;83.02;103154.75;5093446;28;20111;-69
2022/01/19 02:08:21;;;;;;;97.13;26.10;;;;;;;6.07;82.37;103144.66;5071174;28;20055;-71
2022/01/19 02:21:39;;;;;;;108.90;24.73;;;;;;;5.91;82.28;103115.88;5072805;28;20059;-72
2022/01/19 02:24:08;;;;;;;102.97;25.08;;;;;;;5.57;83.42;103125.16;5072719;28;20032;-70
2022/01/19 02:42:42;;;;;;;67.63;20.13;;;;;;;5.39;82.57;103073.47;5010427;28;20464;-70
2022/01/19 02:50:19;;;;;;;64.38;23.85;;;;;;;5.59;82.55;103051.19;5010501;28;20060;-70
2022/01/19 02:52:44;;;;;;;106.18;23.00;;;;;;;5.39;83.38;103033.47;5010196;28;20505;-70
2022/01/19 02:55:10;;;;;;;98.38;20.67;;;;;;;5.44;82.40;103035.75;5010186;28;20038;-71
2022/01/19 02:57:37;;;;;;;114.53;21.10;;;;;;;5.32;83.39;103051.03;5012554;28;20049;-71
2022/01/19 03:11:01;;;;;;;58.20;20.00;;;;;;;5.45;82.23;103022.28;5012882;28;20053;-70
2022/01/19 03:13:26;;;;;;;68.72;21.10;;;;;;;5.17;83.25;103026.56;5013017;28;20045;-72
2022/01/19 03:15:52;;;;;;;102.43;23.98;;;;;;;4.90;83.43;103023.69;5017405;28;20044;-70
2022/01/19 03:18:17;;;;;;;57.75;22.00;;;;;;;5.16;82.17;103021.38;5074243;28;20107;-69
2022/01/19 03:20:42;;;;;;;68.00;22.20;;;;;;;4.96;83.97;103006.31;5074893;28;20039;-71
2022/01/19 03:23:20;;;;;;;54.55;20.95;;;;;;;5.21;82.83;103004.00;5074671;28;20043;-70
2022/01/19 03:25:47;;;;;;;106.32;21.88;;;;;;;5.30;82.49;103007.66;5074181;28;20033;-70
2022/01/19 03:28:13;;;;;;;74.15;22.50;;;;;;;5.32;81.99;103003.03;5074304;28;20047;-70
2022/01/19 03:30:39;;;;;;;72.63;21.98;;;;;;;5.35;81.77;102992.09;5074099;28;20105;-70
2022/01/19 03:33:04;;;;;;;57.40;20.02;;;;;;;5.02;83.12;102984.44;5074269;28;20032;-70
2022/01/19 03:35:30;;;;;;;61.92;20.60;;;;;;;5.19;81.90;102973.13;5074518;28;20103;-71
2022/01/19 03:37:56;;;;;;;64.50;20.77;;;;;;;5.40;80.82;102973.00;5074150;28;20040;-71
2022/01/19 03:40:22;;;;;;;58.05;21.95;;;;;;;5.21;81.19;102965.81;5074070;28;20123;-70
2022/01/19 03:42:48;;;;;;;91.53;21.88;;;;;;;5.05;81.81;102962.88;5073954;28;20043;-70
2022/01/19 03:45:13;;;;;;;62.80;22.02;;;;;;;5.14;82.04;102962.03;5074106;28;20029;-70
2022/01/19 03:47:44;;;;;;;67.68;21.05;;;;;;;5.20;81.76;102961.50;5074794;28;20025;-70
2022/01/19 03:50:10;;;;;;;52.35;21.05;;;;;;;5.09;81.47;102962.44;5074178;28;20024;-71
2022/01/19 03:52:36;;;;;;;82.72;22.25;;;;;;;4.86;82.55;102968.16;5074172;28;20111;-71
2022/01/19 03:55:01;;;;;;;114.57;23.08;;;;;;;5.02;82.06;102961.31;5073919;28;20127;-70
2022/01/19 03:57:27;;;;;;;84.63;22.20;;;;;;;4.94;82.03;102958.50;5034411;28;1127084;-71
2022/01/19 03:59:52;;;;;;;85.57;20.42;;;;;;;4.80;82.36;102939.38;5074920;28;20037;-70
2022/01/19 04:02:19;;;;;;;58.67;19.90;;;;;;;4.70;82.99;102936.69;5075347;28;20093;-71
2022/01/19 04:04:57;;;;;;;63.30;19.80;;;;;;;4.87;82.69;102913.91;5074955;28;20129;-71
2022/01/19 04:07:23;;;;;;;77.95;20.58;;;;;;;4.88;82.35;102911.09;5074512;28;20043;-71
2022/01/19 04:09:48;;;;;;;79.05;20.50;;;;;;;4.85;82.36;102907.88;5074638;28;20033;-71
2022/01/19 04:12:19;;;;;;;87.25;20.88;;;;;;;4.75;82.82;102912.34;5074879;28;20063;-71
2022/01/19 04:14:45;;;;;;;;;;;;;;;4.73;82.51;102907.16;5075830;28;20033;-70
2022/01/19 04:17:15;;;;;;;84.75;20.15;;;;;;;4.79;82.70;102901.28;5056870;28;19918;-70
2022/01/19 04:19:46;;;;;;;61.58;19.45;;;;;;;4.79;82.43;102892.44;5074660;28;20086;-71
2022/01/19 04:22:18;;;;;;;70.18;20.40;;;;;;;4.79;82.49;102903.94;5074803;28;20093;-71
2022/01/19 04:24:45;;;;;;;69.45;20.38;;;;;;;4.71;82.63;102905.59;5056348;28;20056;-70
2022/01/19 04:29:48;;;;;;;78.43;21.88;;;;;;;4.16;84.75;102912.25;5075187;28;20406;-70
2022/01/19 04:32:22;;;;;;;112.38;21.30;;;;;;;4.38;84.27;102920.06;5074382;28;20043;-71
2022/01/19 04:34:49;;;;;;;104.53;21.02;;;;;;;4.44;83.66;102919.53;5074284;28;20039;-70
2022/01/19 05:01:45;;;;;;;56.20;20.60;;;;;;;4.56;81.52;102888.34;5072854;28;20063;-71
2022/01/19 05:06:45;;;;;;;51.67;21.17;;;;;;;4.50;82.15;102878.22;5073485;28;20139;-70
2022/01/19 05:09:39;;;;;;;46.08;20.85;;;;;;;4.51;81.75;102879.88;5073081;28;20094;-71
2022/01/19 05:14:40;;;;;;;48.38;22.20;;;;;;;4.50;82.04;102891.53;5073860;28;20069;-71
2022/01/19 05:17:05;;;;;;;59.88;20.33;;;;;;;4.40;81.57;102881.69;5091040;28;20036;-70
2022/01/19 05:19:30;;;;;;;59.67;22.90;;;;;;;4.41;81.81;102885.19;5092703;28;20127;-70
2022/01/19 05:21:56;;;;;;;45.97;20.45;;;;;;;4.47;81.16;102869.53;5093784;28;20488;-71
2022/01/19 05:24:21;;;;;;;73.63;21.23;;;;;;;4.50;80.98;102859.59;5093425;28;20045;-71
2022/01/19 05:26:50;;;;;;;89.35;21.25;;;;;;;4.38;80.96;102857.00;5094420;28;20034;-71
2022/01/19 05:29:15;;;;;;;43.50;20.45;;;;;;;4.40;81.09;102851.59;5095931;28;20047;-72
2022/01/19 05:31:41;;;;;;;49.35;21.63;;;;;;;4.43;81.46;102853.97;5114090;28;20032;-70
2022/01/19 05:34:06;;;;;;;50.47;21.67;;;;;;;4.51;80.62;102851.47;5110430;28;20119;-71
2022/01/19 05:36:31;;;;;;;53.42;22.75;;;;;;;4.58;80.84;102844.59;5093563;28;20035;-70
2022/01/19 05:38:57;;;;;;;48.63;23.70;;;;;;;4.61;81.01;102848.81;5074515;28;20503;-70
2022/01/19 05:41:22;;;;;;;46.88;23.23;;;;;;;4.65;80.77;102839.56;5093842;28;20044;-71
2022/01/19 05:43:48;;;;;;;51.03;22.02;;;;;;;4.68;81.36;102844.66;5093303;28;20102;-71
2022/01/19 05:46:13;;;;;;;52.33;24.15;;;;;;;4.71;81.59;102834.53;5093429;28;20039;-71
2022/01/19 05:48:39;;;;;;;62.60;24.75;;;;;;;4.75;81.06;102833.28;5093049;28;20028;-71
2022/01/19 05:51:04;;;;;;;57.80;23.90;;;;;;;4.73;81.01;102827.25;5093387;28;20020;-72
2022/01/19 05:53:29;;;;;;;48.63;22.33;;;;;;;4.83;81.30;102828.13;5093878;28;20036;-70
2022/01/19 05:55:55;;;;;;;44.38;22.10;;;;;;;4.86;81.47;102814.50;5093139;28;20106;-72
2022/01/19 05:58:20;;;;;;;44.42;21.90;;;;;;;4.92;81.56;102811.28;5092972;28;20040;-70
2022/01/19 06:00:46;;;;;;;38.58;21.15;;;;;;;5.00;80.94;102805.25;5092784;28;20038;-71
2022/01/19 06:03:11;;;;;;;47.67;22.55;;;;;;;5.02;80.71;102795.28;5092977;28;20043;-70
2022/01/19 06:05:36;;;;;;;41.67;21.13;;;;;;;5.00;81.36;102794.59;5092967;28;20032;-70
2022/01/19 06:10:55;;;;;;;43.97;22.45;;;;;;;5.05;81.58;102773.72;5030456;28;20042;-70
2022/01/19 06:13:21;;;;;;;43.03;21.65;;;;;;;5.10;80.97;102772.31;5030323;28;20132;-70
2022/01/19 06:15:47;;;;;;;45.50;22.58;;;;;;;5.12;80.68;102762.34;5029970;28;20366;-70
2022/01/19 06:18:14;;;;;;;43.47;21.55;;;;;;;5.04;81.47;102756.03;5029828;28;20041;-71
2022/01/19 06:20:40;;;;;;;42.53;21.60;;;;;;;5.19;81.03;102749.25;5022604;28;20033;-70
2022/01/19 06:23:06;;;;;;;50.22;22.88;;;;;;;5.20;80.25;102746.47;5019263;28;20045;-69
2022/01/19 06:25:32;;;;;;;43.95;22.17;;;;;;;5.21;80.49;102744.63;5022984;28;20096;-70
2022/01/19 06:27:57;;;;;;;47.75;22.67;;;;;;;5.28;80.77;102738.59;5017974;28;20040;-69
2022/01/19 06:30:23;;;;;;;44.83;22.58;;;;;;;5.44;79.77;102738.00;5020484;28;20122;-70
2022/01/19 06:32:49;;;;;;;45.97;23.30;;;;;;;5.33;79.84;102725.69;5018876;28;20491;-69
2022/01/19 06:35:15;;;;;;;49.42;23.95;;;;;;;5.30;80.34;102725.97;5019662;28;20052;-70
2022/01/19 06:37:40;;;;;;;43.38;21.75;;;;;;;5.33;79.79;102730.16;5018348;28;20041;-70
2022/01/19 06:40:07;;;;;;;45.33;22.88;;;;;;;5.39;79.60;102724.25;5022244;28;20034;-71
2022/01/19 06:42:33;;;;;;;42.30;22.60;;;;;;;5.40;79.06;102714.44;5023758;28;20049;-71
2022/01/19 06:44:58;;;;;;;51.60;23.90;;;;;;;5.38;79.04;102710.06;5024340;28;20032;-71
2022/01/19 06:47:24;;;;;;;44.33;22.27;;;;;;;5.32;79.45;102705.34;5043479;28;20553;-72
2022/01/19 06:49:49;;;;;;;48.60;23.65;;;;;;;5.45;79.47;102698.81;5086228;28;20040;-71
2022/01/19 06:52:14;;;;;;;39.95;20.20;;;;;;;5.41;78.90;102686.78;5089258;28;20471;-71
2022/01/19 06:54:40;;;;;;;43.05;22.75;;;;;;;5.27;80.09;102693.41;5087797;28;20082;-72
2022/01/19 06:57:05;;;;;;;47.35;23.40;;;;;;;5.30;79.44;102696.66;5088578;28;20419;-71
2022/01/19 06:59:31;;;;;;;39.58;20.83;;;;;;;5.47;78.83;102684.38;5102209;28;20042;-72
2022/01/19 07:01:56;;;;;;;52.10;22.38;;;;;;;5.53;78.77;102685.59;5112557;28;20035;-71
2022/01/19 07:04:21;;;;;;;39.63;21.42;;;;;;;5.27;79.06;102686.28;5105718;28;20916;-70
2022/01/19 07:06:47;;;;;;;42.92;21.38;;;;;;;5.20;79.46;102679.84;5092161;28;20032;-70
2022/01/19 07:09:12;;;;;;;43.92;22.58;;;;;;;5.20;79.32;102687.00;5108062;28;20042;-70
2022/01/19 07:11:38;;;;;;;47.40;23.92;;;;;;;5.26;79.58;102678.44;5100483;28;20079;-71
2022/01/19 07:14:05;;;;;;;47.47;23.50;;;;;;;5.35;79.59;102673.06;5094033;28;20063;-72
2022/01/19 07:16:30;;;;;;;46.70;23.05;;;;;;;5.30;79.03;102670.00;5100686;28;20032;-70
2022/01/19 07:18:56;;;;;;;41.53;22.27;;;;;;;5.47;78.72;102668.38;5097802;28;20051;-71
2022/01/19 07:21:21;;;;;;;50.00;24.38;;;;;;;5.30;78.47;102670.00;5090683;28;20265;-70
2022/01/19 07:23:47;;;;;;;44.40;23.63;;;;;;;5.47;78.49;102667.53;5090438;28;20093;-70
2022/01/19 07:26:12;;;;;;;46.42;22.35;;;;;;;5.68;78.02;102676.16;5085194;28;20047;-71
2022/01/19 07:28:38;;;;;;;42.03;22.50;;;;;;;5.73;77.71;102672.03;5086956;28;20036;-71
2022/01/19 07:31:03;;;;;;;46.53;24.23;;;;;;;5.86;77.79;102661.88;5088766;28;20116;-71
2022/01/19 07:33:28;;;;;;;40.35;22.88;;;;;;;5.78;77.92;102660.94;5075963;28;20033;-69
2022/01/19 07:35:54;;;;;;;41.05;24.50;;;;;;;5.71;78.34;102663.34;5075194;28;20028;-71
2022/01/19 07:38:22;;;;;;;48.13;24.70;;;;;;;5.79;78.12;102657.25;5080517;28;20483;-71
2022/01/19 07:40:48;;;;;;;49.40;23.95;;;;;;;5.89;77.60;102653.59;5069291;28;20032;-70
2022/01/19 07:43:13;;;;;;;43.20;24.35;;;;;;;5.91;78.17;102659.63;5083229;28;20035;-70
2022/01/19 07:45:39;;;;;;;57.88;27.25;;;;;;;5.83;78.26;102659.53;5079433;28;20268;-71
2022/01/19 07:48:04;;;;;;;56.17;27.73;;;;;;;5.66;79.38;102652.28;5084400;28;20376;-69
2022/01/19 07:50:30;;;;;;;56.88;26.55;;;;;;;5.35;80.38;102653.56;5087211;28;20647;-70
2022/01/19 07:52:55;;;;;;;59.17;29.95;;;;;;;5.62;80.02;102644.75;5085761;28;20036;-72
2022/01/19 07:55:21;;;;;;;57.05;28.08;;;;;;;5.53;80.18;102645.59;5083770;28;20059;-70
2022/01/19 07:57:50;;;;;;;51.17;27.73;;;;;;;5.43;80.56;102639.47;5086238;28;20047;-71
2022/01/19 08:00:16;;;;;;;53.03;28.05;;;;;;;5.54;79.97;102626.81;5061126;28;20526;-71
2022/01/19 08:02:42;;;;;;;51.22;26.02;;;;;;;5.50;79.81;102632.59;5085251;28;20020;-71
2022/01/19 08:05:08;;;;;;;55.33;26.80;;;;;;;5.22;80.39;102639.72;5086082;28;20383;-70
2022/01/19 08:07:35;;;;;;;52.38;28.52;;;;;;;5.24;80.98;102643.09;5089876;28;20040;-70
2022/01/19 08:10:03;;;;;;;57.30;29.42;;;;;;;5.22;80.92;102621.06;5089810;28;20457;-71
2022/01/19 08:12:29;;;;;;;64.25;29.77;;;;;;;5.22;81.27;102621.94;5090073;28;20036;-71
2022/01/19 08:14:54;;;;;;;56.40;28.83;;;;;;;5.27;81.19;102608.97;5090123;28;20028;-71
2022/01/19 08:17:19;;;;;;;54.78;30.10;;;;;;;5.28;80.86;102601.84;5088102;28;20415;-69
2022/01/19 08:19:45;;;;;;;69.50;29.85;;;;;;;5.23;81.32;102596.94;5087477;28;20155;-70
2022/01/19 08:22:10;;;;;;;58.22;29.98;;;;;;;5.05;82.79;102597.88;5072248;28;20093;-70
2022/01/19 08:24:36;;;;;;;59.75;31.83;;;;;;;5.18;81.92;102604.56;5092216;28;20399;-71
2022/01/19 08:27:02;;;;;;;62.92;31.67;;;;;;;5.15;81.54;102599.50;5074714;28;20028;-70
2022/01/19 08:29:27;;;;;;;62.25;30.90;;;;;;;5.37;80.97;102595.59;5091505;28;20498;-69
2022/01/19 08:31:53;;;;;;;62.22;33.00;;;;;;;5.71;79.70;102587.81;5093169;28;20526;-72
2022/01/19 08:34:18;;;;;;;55.70;27.70;;;;;;;5.44;81.31;102586.03;5092183;28;20036;-70
2022/01/19 08:36:44;;;;;;;65.97;32.00;;;;;;;5.83;79.29;102581.28;5094644;28;20027;-71
2022/01/19 08:39:10;;;;;;;62.55;32.20;;;;;;;5.80;79.40;102578.91;5101034;28;20051;-71
2022/01/19 08:41:35;;;;;;;68.35;34.13;;;;;;;5.66;80.30;102582.94;5092956;28;20480;-69
2022/01/19 08:44:01;;;;;;;60.00;30.27;;;;;;;5.54;80.67;102573.50;5092431;28;20121;-71
2022/01/19 08:46:26;;;;;;;69.63;32.15;;;;;;;5.38;81.36;102567.97;5092276;28;20059;-70
2022/01/19 08:48:52;;;;;;;64.28;32.80;;;;;;;5.28;81.83;102559.19;5092285;28;20037;-70
2022/01/19 08:51:17;;;;;;;64.55;32.65;;;;;;;5.49;81.27;102566.91;5092044;28;20488;-70
2022/01/19 08:53:42;;;;;;;60.65;32.00;;;;;;;5.62;81.07;102564.75;5093353;28;20029;-70
2022/01/19 08:56:08;;;;;;;60.92;32.90;;;;;;;5.32;81.55;102558.75;5093060;28;20165;-70
2022/01/19 08:58:33;;;;;;;70.32;33.95;;;;;;;5.59;81.36;102570.34;5078195;28;20742;-71
2022/01/19 09:00:59;;;;;;;76.47;34.17;;;;;;;5.80;79.83;102561.06;5070848;28;20148;-71
2022/01/19 09:03:24;;;;;;;69.28;35.03;;;;;;;5.81;79.67;102557.44;5070880;28;20040;-70
2022/01/19 09:05:49;;;;;;;69.50;36.45;;;;;;;5.76;80.58;102553.56;5071903;28;20024;-68
2022/01/19 09:08:15;;;;;;;76.00;37.90;;;;;;;5.70;81.05;102554.16;5073286;28;20048;-69
2022/01/19 09:10:41;;;;;;;79.95;38.25;;;;;;;5.68;80.45;102548.13;5071132;28;20112;-70
2022/01/19 09:13:09;;;;;;;84.95;38.15;;;;;;;5.53;82.14;102526.47;5070704;28;20040;-72
2022/01/19 09:15:35;;;;;;;79.47;37.72;;;;;;;5.61;81.50;102523.06;5058044;28;20040;-68
2022/01/19 09:18:02;;;;;;;83.55;38.88;;;;;;;5.93;81.34;102516.22;5070942;28;20028;-70
2022/01/19 09:20:28;;;;;;;89.78;38.63;;;;;;;5.78;81.25;102522.22;5071525;28;20043;-70
2022/01/19 09:22:53;;;;;;;86.20;37.97;;;;;;;5.69;81.32;102526.66;5071376;28;20044;-70
2022/01/19 09:25:19;;;;;;;97.72;43.05;;;;;;;5.88;81.20;102518.50;5071281;28;20067;-70
2022/01/19 09:27:45;;;;;;;90.68;42.88;;;;;;;5.88;81.14;102507.84;5071393;28;20070;-69
2022/01/19 09:30:19;;;;;;;97.93;41.67;;;;;;;5.94;81.19;102501.88;5071839;28;20064;-70
2022/01/19 09:32:54;;;;;;;109.22;43.30;;;;;;;5.88;81.02;102486.50;5072108;28;20043;-71
2022/01/19 09:35:24;;;;;;;96.88;44.55;;;;;;;5.61;82.17;102491.91;5052787;28;20045;-69
2022/01/19 09:37:49;;;;;;;94.88;41.50;;;;;;;5.74;81.87;102494.19;5070577;28;20032;-70
2022/01/19 09:40:15;;;;;;;102.13;45.95;;;;;;;5.70;82.28;102496.31;5070801;28;20029;-70
2022/01/19 09:42:40;;;;;;;100.55;43.30;;;;;;;5.80;81.57;102498.88;5070865;28;20113;-69
2022/01/19 09:45:06;;;;;;;99.50;44.17;;;;;;;6.04;80.79;102502.63;5070635;28;20545;-70
2022/01/19 09:47:31;;;;;;;96.85;43.95;;;;;;;5.84;81.83;102489.63;5071597;28;20024;-69
2022/01/19 09:49:57;;;;;;;98.68;44.03;;;;;;;5.83;81.67;102490.59;5070501;28;20586;-69
2022/01/19 09:52:22;;;;;;;95.10;42.47;;;;;;;6.03;80.78;102479.59;5071059;28;20552;-70
2022/01/19 09:54:48;;;;;;;96.55;44.97;;;;;;;5.97;81.62;102472.25;5069922;28;20028;-69
2022/01/19 09:57:13;;;;;;;97.28;42.55;;;;;;;6.08;81.43;102474.66;5073268;28;20028;-69
2022/01/19 09:59:39;;;;;;;96.20;43.03;;;;;;;6.05;81.32;102469.59;5069387;28;20471;-71
2022/01/19 10:02:07;;;;;;;97.55;43.28;;;;;;;6.04;81.02;102469.78;5070564;28;20033;-69
2022/01/19 10:04:46;;;;;;;99.72;45.00;;;;;;;6.10;81.52;102463.81;5069653;28;20044;-69
2022/01/19 10:07:13;;;;;;;93.30;39.60;;;;;;;5.87;81.96;102462.66;5067811;28;20037;-70
2022/01/19 10:10:00;;;;;;;101.03;44.88;;;;;;;6.23;80.63;102459.72;5069407;28;20066;-70
2022/01/19 10:18:13;;;;;;;104.70;44.78;;;;;;;6.03;81.37;102455.59;5068343;28;20047;-71
2022/01/19 10:20:38;;;;;;;104.40;41.75;;;;;;;5.85;82.30;102445.97;5070582;28;20036;-69
2022/01/19 10:23:05;;;;;;;100.95;43.35;;;;;;;5.99;81.48;102442.72;5067804;28;20368;-70
2022/01/19 10:25:47;;;;;;;111.57;46.25;;;;;;;6.13;80.53;102432.31;5070332;28;20137;-69
2022/01/19 10:28:13;;;;;;;100.30;46.60;;;;;;;6.27;80.71;102433.56;5069080;28;20127;-70
2022/01/19 10:30:38;;;;;;;100.15;44.45;;;;;;;6.46;79.97;102430.69;5070249;28;20368;-71
2022/01/19 10:33:04;;;;;;;116.15;46.50;;;;;;;6.30;80.43;102437.75;5069941;28;20082;-69
2022/01/19 10:35:37;;;;;;;106.32;46.45;;;;;;;6.14;80.57;102434.00;5070300;28;20046;-69
2022/01/19 10:38:24;;;;;;;100.85;45.42;;;;;;;6.08;80.84;102428.44;5059556;28;20447;-68
2022/01/19 10:41:01;;;;;;;108.88;45.53;;;;;;;5.93;81.58;102428.19;5067099;28;20033;-69
2022/01/19 10:43:38;;;;;;;104.10;47.47;;;;;;;6.00;81.97;102423.03;5067618;28;20507;-70
2022/01/19 10:46:15;;;;;;;99.60;46.53;;;;;;;5.96;81.35;102414.53;5070091;28;20126;-70
2022/01/19 10:48:41;;;;;;;110.85;46.70;;;;;;;5.92;81.96;102418.50;5069109;28;20043;-70
2022/01/19 10:51:20;;;;;;;101.95;43.70;;;;;;;6.06;81.27;102415.25;5069530;28;20384;-70
2022/01/19 10:53:48;;;;;;;102.65;48.20;;;;;;;6.09;81.10;102403.44;5067965;28;20036;-71
2022/01/19 10:56:25;;;;;;;62.63;24.73;;;;;;;5.89;82.07;102396.63;5070636;28;20039;-71
2022/01/19 10:58:58;;;;;;;99.47;46.88;;;;;;;6.28;80.42;102378.34;5081445;28;20047;-70
2022/01/19 11:01:38;;;;;;;114.68;49.90;;;;;;;6.38;80.12;102376.38;5089840;28;20144;-69
2022/01/19 11:04:39;;;;;;;92.88;44.25;;;;;;;6.36;79.90;102375.72;5089676;28;20130;-70
2022/01/19 11:07:15;;;;;;;103.75;45.47;;;;;;;6.32;80.61;102369.03;5007358;28;20394;-70
2022/01/19 11:09:45;;;;;;;106.80;46.92;;;;;;;6.35;80.60;102371.38;5006890;28;20522;-70
2022/01/19 11:12:15;;;;;;;105.35;47.53;;;;;;;6.23;80.56;102355.63;5008592;28;20046;-70
2022/01/19 11:14:42;;;;;;;100.40;49.03;;;;;;;6.22;81.38;102351.31;5012854;28;20034;-70
2022/01/19 11:17:09;;;;;;;97.35;44.72;;;;;;;5.79;82.64;102342.53;5009760;28;20038;-69
2022/01/19 11:19:39;;;;;;;107.25;49.08;;;;;;;5.98;82.29;102337.00;5025708;28;20124;-70
2022/01/19 11:22:35;;;;;;;107.07;46.95;;;;;;;6.01;81.75;102340.16;5010748;28;20034;-70
2022/01/19 11:25:04;;;;;;;89.28;44.90;;;;;;;6.18;80.97;102333.09;5012813;28;20049;-71
2022/01/19 11:28:02;;;;;;;105.18;47.65;;;;;;;6.29;80.66;102332.78;5011142;28;20529;-70
2022/01/19 11:30:34;;;;;;;97.68;46.58;;;;;;;6.23;81.42;102328.94;4963867;28;20038;-71
2022/01/19 11:33:28;;;;;;;104.00;46.85;;;;;;;6.12;81.75;102313.22;4966040;28;20090;-70
2022/01/19 11:36:05;;;;;;;93.00;43.08;;;;;;;6.05;81.74;102311.38;4962769;28;20039;-71
2022/01/19 11:38:40;;;;;;;99.65;45.22;;;;;;;6.13;81.93;102296.19;4965869;28;20495;-70
2022/01/19 11:41:08;;;;;;;96.65;46.30;;;;;;;6.30;81.28;102298.94;4965127;28;20066;-68
2022/01/19 11:43:37;;;;;;;101.20;47.85;;;;;;;6.12;82.34;102289.22;4987575;28;20054;-69
2022/01/19 11:46:04;;;;;;;98.47;50.25;;;;;;;6.10;82.07;102304.53;4996049;28;20042;-70
2022/01/19 11:48:35;;;;;;;97.85;49.28;;;;;;;6.18;82.54;102291.25;5000487;28;20038;-70
2022/01/19 11:51:25;;;;;;;92.53;45.78;;;;;;;6.24;81.73;102281.75;5006804;28;20081;-69
2022/01/19 11:54:02;;;;;;;99.05;46.33;;;;;;;6.50;80.94;102265.63;4993631;28;20551;-71
2022/01/19 11:56:28;;;;;;;91.32;43.83;;;;;;;6.51;81.37;102264.63;4991428;28;20045;-70
2022/01/19 11:59:09;;;;;;;95.07;48.08;;;;;;;6.60;81.14;102258.31;4998291;28;20141;-69
2022/01/19 12:01:35;;;;;;;97.13;42.17;;;;;;;6.55;81.25;102255.28;4999883;28;20472;-70
2022/01/19 12:04:13;;;;;;;106.43;49.65;;;;;;;6.52;80.87;102240.44;4999581;28;20510;-70
2022/01/19 12:06:39;;;;;;;93.63;46.95;;;;;;;6.71;80.85;102231.25;5072080;28;20510;-70
2022/01/19 12:09:07;;;;;;;91.03;45.80;;;;;;;6.72;80.30;102235.63;5097633;28;20039;-69
2022/01/19 12:11:35;;;;;;;94.00;45.38;;;;;;;6.69;81.02;102219.91;5097612;28;20112;-71
2022/01/19 12:14:23;;;;;;;87.00;43.55;;;;;;;6.53;81.14;102231.41;5093191;28;20067;-70
2022/01/19 12:16:59;;;;;;;81.45;41.80;;;;;;;6.54;80.97;102229.59;5095697;28;20060;-69
2022/01/19 12:19:28;;;;;;;84.70;41.88;;;;;;;6.53;81.62;102227.91;5096141;28;20122;-69
2022/01/19 12:21:55;;;;;;;86.10;42.25;;;;;;;6.45;82.00;102225.22;5096055;28;20453;-70
2022/01/19 12:24:34;;;;;;;90.80;45.03;;;;;;;6.71;80.74;102217.91;5096935;28;20052;-69
2022/01/19 12:27:22;;;;;;;80.70;42.25;;;;;;;6.58;81.69;102220.25;5097251;28;20038;-69
2022/01/19 12:29:58;;;;;;;93.30;45.67;;;;;;;6.81;80.34;102208.75;5098521;28;20043;-70
2022/01/19 12:32:26;;;;;;;77.30;39.85;;;;;;;6.87;79.86;102208.06;5076367;28;20093;-70
2022/01/19 12:34:54;;;;;;;83.50;40.28;;;;;;;6.79;80.96;102201.88;5074188;28;20048;-68
2022/01/19 12:37:39;;;;;;;77.72;41.92;;;;;;;6.71;80.50;102178.69;5068965;28;20037;-68
2022/01/19 12:40:27;;;;;;;73.57;42.72;;;;;;;6.69;80.62;102183.38;5069006;28;20037;-69
2022/01/19 12:42:59;;;;;;;77.07;37.58;;;;;;;6.61;81.44;102169.16;5070889;28;20396;-68
2022/01/19 12:45:43;;;;;;;82.47;44.58;;;;;;;6.95;80.38;102167.16;5070778;28;20037;-68
2022/01/19 12:48:08;;;;;;;75.10;39.83;;;;;;;6.68;80.43;102160.31;5070991;28;20380;-68
2022/01/19 12:50:46;;;;;;;85.22;42.88;;;;;;;6.60;80.86;102175.53;5071197;28;20169;-70
2022/01/19 12:53:18;;;;;;;69.72;38.08;;;;;;;6.55;81.47;102164.47;5069810;28;20082;-70